createdAt,value
2023-04-11T00:02:16.218Z,10.03
2023-04-11T00:04:44.686Z,10.70
2023-04-11T00:07:12.815Z,9.77
2023-04-11T00:09:42.258Z,9.93
2023-04-11T00:12:10.372Z,10.67
2023-04-11T00:14:38.523Z,9.50
2023-04-11T00:17:10.217Z,9.83
2023-04-11T00:19:38.320Z,10.00
2023-04-11T00:22:06.497Z,9.70
2023-04-11T00:24:35.014Z,9.73
2023-04-11T00:27:04.541Z,9.57
2023-04-11T00:29:36.142Z,9.07
2023-04-11T00:32:04.968Z,9.13
2023-04-11T00:34:34.295Z,9.23
2023-04-11T00:37:03.332Z,9.17
2023-04-11T00:39:35.134Z,9.77
2023-04-11T00:42:09.779Z,9.57
2023-04-11T00:44:40.420Z,9.80
2023-04-11T00:47:09.982Z,9.57
2023-04-11T00:49:38.535Z,10.60
2023-04-11T00:52:07.522Z,10.00
2023-04-11T00:54:35.787Z,9.83
2023-04-11T00:57:06.812Z,10.13
2023-04-11T00:59:37.325Z,9.20
2023-04-11T01:02:06.041Z,8.70
2023-04-11T01:04:34.113Z,10.80
2023-04-11T01:07:06.469Z,8.77
2023-04-11T01:09:36.713Z,9.70
2023-04-11T01:12:06.927Z,9.47
2023-04-11T01:14:36.262Z,10.07
2023-04-11T01:17:04.444Z,9.57
2023-04-11T01:19:32.839Z,8.10
2023-04-11T01:22:03.059Z,10.00
2023-04-11T01:24:33.268Z,10.70
2023-04-11T01:27:02.544Z,10.30
2023-04-11T01:29:32.205Z,9.27
2023-04-11T01:32:00.242Z,11.53
2023-04-11T01:34:29.643Z,9.53
2023-04-11T01:36:58.138Z,10.73
2023-04-11T01:39:26.182Z,9.97
2023-04-11T01:41:58.610Z,9.63
2023-04-11T01:44:27.536Z,9.40
2023-04-11T01:46:56.043Z,9.53
2023-04-11T01:49:26.150Z,10.60
2023-04-11T01:51:54.310Z,10.60
2023-04-11T01:54:22.285Z,8.67
2023-04-11T01:56:50.562Z,10.53
2023-04-11T01:59:20.089Z,9.27
2023-04-11T02:01:48.239Z,9.50
2023-04-11T02:04:16.494Z,9.90
2023-04-11T02:06:44.690Z,9.20
2023-04-11T02:09:12.921Z,10.20
2023-04-11T02:11:41.807Z,9.27
2023-04-11T02:14:10.086Z,10.57
2023-04-11T02:16:52.553Z,10.13
2023-04-11T02:19:21.481Z,11.23
2023-04-11T02:21:49.840Z,10.10
2023-04-11T02:24:17.796Z,10.50
2023-04-11T02:26:45.791Z,9.60
2023-04-11T02:29:13.726Z,12.03
2023-04-11T02:31:43.034Z,10.90
2023-04-11T02:34:12.615Z,11.57
2023-04-11T02:36:41.856Z,10.67
2023-04-11T02:39:10.184Z,11.87
2023-04-11T02:41:40.078Z,11.00
2023-04-11T02:44:08.192Z,11.63
2023-04-11T02:46:36.604Z,11.87
2023-04-11T02:49:05.064Z,11.43
2023-04-11T02:51:34.862Z,11.97
2023-04-11T02:54:03.280Z,11.63
2023-04-11T02:56:31.721Z,12.43
2023-04-11T02:58:59.628Z,12.40
2023-04-11T03:01:28.264Z,11.17
2023-04-11T03:03:56.372Z,12.47
2023-04-11T03:06:24.696Z,11.97
2023-04-11T03:08:54.570Z,11.83
2023-04-11T03:11:23.199Z,12.20
2023-04-11T03:13:52.482Z,12.33
2023-04-11T03:16:20.544Z,13.13
2023-04-11T03:18:48.951Z,12.43
2023-04-11T03:21:17.416Z,11.63
2023-04-11T03:23:45.582Z,11.00
2023-04-11T03:26:15.032Z,12.80
2023-04-11T03:28:43.032Z,13.00
2023-04-11T03:31:11.896Z,12.43
2023-04-11T03:33:40.330Z,12.70
2023-04-11T03:36:09.903Z,14.00
2023-04-11T03:38:37.966Z,12.17
2023-04-11T03:41:07.576Z,13.80
2023-04-11T03:43:37.192Z,12.73
2023-04-11T03:46:05.792Z,12.73
2023-04-11T03:48:33.898Z,13.40
2023-04-11T03:51:01.984Z,14.57
2023-04-11T03:53:30.007Z,12.93
2023-04-11T03:55:57.972Z,14.23
2023-04-11T03:58:26.889Z,12.37
2023-04-11T04:00:56.784Z,14.90
2023-04-11T04:03:25.218Z,13.00
2023-04-11T04:05:53.582Z,13.80
2023-04-11T04:08:21.716Z,13.13
2023-04-11T04:10:49.669Z,14.30
2023-04-11T04:13:17.846Z,14.27
2023-04-11T04:15:45.742Z,14.20
2023-04-11T04:18:15.401Z,14.80
2023-04-11T04:20:43.472Z,14.27
2023-04-11T04:23:14.032Z,13.70
2023-04-11T04:25:42.298Z,14.17
2023-04-11T04:28:10.800Z,14.50
2023-04-11T04:30:39.199Z,15.67
2023-04-11T04:33:12.544Z,14.33
2023-04-11T04:35:42.469Z,14.30
2023-04-11T04:38:18.228Z,14.83
2023-04-11T04:40:46.854Z,15.10
2023-04-11T04:43:18.940Z,15.60
2023-04-11T04:45:46.942Z,13.63
2023-04-11T04:48:15.233Z,13.40
2023-04-11T04:50:45.933Z,14.60
2023-04-11T04:53:13.987Z,14.73
2023-04-11T04:55:42.462Z,17.40
2023-04-11T04:58:10.544Z,15.90
2023-04-11T05:00:38.446Z,16.37
2023-04-11T05:03:08.661Z,14.77
2023-04-11T05:05:37.025Z,15.40
2023-04-11T05:08:06.721Z,16.03
2023-04-11T05:10:35.060Z,16.00
2023-04-11T05:13:03.419Z,15.50
2023-04-11T05:15:31.423Z,15.53
2023-04-11T05:17:59.446Z,16.57
2023-04-11T05:20:29.903Z,16.37
2023-04-11T05:22:58.163Z,16.13
2023-04-11T05:25:28.374Z,16.33
2023-04-11T05:27:57.729Z,16.17
2023-04-11T05:30:26.225Z,16.67
2023-04-11T05:32:54.585Z,15.67
2023-04-11T05:35:22.940Z,16.00
2023-04-11T05:37:51.053Z,15.63
2023-04-11T05:40:19.583Z,16.07
2023-04-11T05:42:50.294Z,15.03
2023-04-11T05:45:18.478Z,16.10
2023-04-11T05:47:46.842Z,15.60
2023-04-11T05:50:15.951Z,14.90
2023-04-11T05:52:46.324Z,14.60
2023-04-11T05:55:14.365Z,16.23
2023-04-11T05:57:42.420Z,14.47
2023-04-11T06:00:14.828Z,15.67
2023-04-11T06:02:43.565Z,14.47
2023-04-11T06:05:12.675Z,15.17
2023-04-11T06:07:41.995Z,15.00
2023-04-11T06:10:11.094Z,13.27
2023-04-11T06:12:39.069Z,13.77
2023-04-11T06:15:09.776Z,13.23
2023-04-11T06:17:40.667Z,13.93
2023-04-11T06:20:10.782Z,13.20
2023-04-11T06:22:40.378Z,11.77
2023-04-11T06:25:09.617Z,12.67
2023-04-11T06:27:38.095Z,12.50
2023-04-11T06:30:07.520Z,11.80
2023-04-11T06:32:35.567Z,12.20
2023-04-11T06:35:06.200Z,12.10
2023-04-11T06:37:34.811Z,11.30
2023-04-11T06:40:05.514Z,11.37
2023-04-11T06:42:33.787Z,11.37
2023-04-11T06:45:02.546Z,10.17
2023-04-11T06:47:31.962Z,10.97
2023-04-11T06:49:59.978Z,11.20
2023-04-11T06:52:30.380Z,12.60
2023-04-11T06:54:58.546Z,10.70
2023-04-11T06:57:27.045Z,11.07
2023-04-11T06:59:56.321Z,11.10
2023-04-11T07:02:25.910Z,10.17
2023-04-11T07:04:54.564Z,11.03
2023-04-11T07:07:22.562Z,10.13
2023-04-11T07:09:52.142Z,10.30
2023-04-11T07:12:20.158Z,10.13
2023-04-11T07:14:50.899Z,10.30
2023-04-11T07:17:18.834Z,9.23
2023-04-11T07:19:47.115Z,10.23
2023-04-11T07:22:15.053Z,10.37
2023-04-11T07:24:43.655Z,10.33
2023-04-11T07:27:14.711Z,8.60
2023-04-11T07:29:43.554Z,11.73
2023-04-11T07:32:11.555Z,9.10
2023-04-11T07:34:40.743Z,9.53
2023-04-11T07:37:08.766Z,8.93
2023-04-11T07:39:36.957Z,9.40
2023-04-11T07:42:05.121Z,9.07
2023-04-11T07:44:34.599Z,10.20
2023-04-11T07:47:03.141Z,9.87
2023-04-11T07:49:31.565Z,10.57
2023-04-11T07:51:59.705Z,7.83
2023-04-11T07:54:28.612Z,9.30
2023-04-11T07:56:57.191Z,8.00
2023-04-11T07:59:25.433Z,8.57
2023-04-11T08:02:02.210Z,7.57
2023-04-11T08:04:32.752Z,9.33
2023-04-11T08:07:01.122Z,9.13
2023-04-11T08:09:29.301Z,8.37
2023-04-11T08:11:58.610Z,7.50
2023-04-11T08:14:26.801Z,8.17
2023-04-11T08:16:55.578Z,9.03
2023-04-11T08:19:25.139Z,7.90
2023-04-11T08:21:53.275Z,7.50
2023-04-11T08:24:21.862Z,7.53
2023-04-11T08:26:50.918Z,7.17
2023-04-11T08:29:19.961Z,8.10
2023-04-11T08:31:48.231Z,6.97
2023-04-11T08:34:16.946Z,7.77
2023-04-11T08:36:47.739Z,8.03
2023-04-11T08:39:15.682Z,7.87
2023-04-11T08:41:44.471Z,7.10
2023-04-11T08:44:13.263Z,6.93
2023-04-11T08:46:44.322Z,6.93
2023-04-11T08:49:12.507Z,7.13
2023-04-11T08:51:44.926Z,5.83
2023-04-11T08:54:16.716Z,7.67
2023-04-11T08:56:45.017Z,5.90
2023-04-11T08:59:13.259Z,7.67
2023-04-11T09:01:41.555Z,6.40
2023-04-11T09:04:12.389Z,6.00
2023-04-11T09:06:42.838Z,6.40
2023-04-11T09:09:31.576Z,6.50
2023-04-11T09:11:59.999Z,6.03
2023-04-11T09:14:28.377Z,8.03
2023-04-11T09:16:58.797Z,7.27
2023-04-11T09:19:27.690Z,8.13
2023-04-11T09:21:56.886Z,6.17
2023-04-11T09:24:26.506Z,6.60
2023-04-11T09:27:10.030Z,6.83
2023-04-11T09:29:42.245Z,6.47
2023-04-11T09:32:31.660Z,7.00
2023-04-11T09:35:11.208Z,7.10
2023-04-11T09:37:46.973Z,7.97
2023-04-11T09:40:19.260Z,7.57
2023-04-11T09:42:50.637Z,6.43
2023-04-11T09:45:20.663Z,7.27
2023-04-11T09:47:51.307Z,5.80
2023-04-11T09:50:20.253Z,6.70
2023-04-11T09:52:48.611Z,7.43
2023-04-11T09:55:19.569Z,7.43
2023-04-11T09:57:53.333Z,8.03
2023-04-11T10:00:24.329Z,6.83
2023-04-11T10:02:54.149Z,6.97
2023-04-11T10:05:27.750Z,7.67
2023-04-11T10:08:01.932Z,6.53
2023-04-11T10:10:31.115Z,7.87
2023-04-11T10:13:03.569Z,8.87
2023-04-11T10:15:31.731Z,7.50
2023-04-11T10:18:10.637Z,7.27
2023-04-11T10:20:44.018Z,7.60
2023-04-11T10:23:13.068Z,6.97
2023-04-11T10:25:52.292Z,5.17
2023-04-11T10:28:48.513Z,6.80
2023-04-11T10:31:19.909Z,5.53
2023-04-11T10:34:15.662Z,8.07
2023-04-11T10:37:05.090Z,6.10
2023-04-11T10:40:10.403Z,6.20
2023-04-11T10:42:40.835Z,7.67
2023-04-11T10:45:18.455Z,7.10
2023-04-11T10:48:05.977Z,6.80
2023-04-11T10:50:37.059Z,5.70
2023-04-11T10:53:07.683Z,7.27
2023-04-11T10:55:49.637Z,6.47
2023-04-11T10:58:19.863Z,6.50
2023-04-11T11:01:31.876Z,6.07
2023-04-11T11:04:07.059Z,7.07
2023-04-11T11:06:46.058Z,6.20
2023-04-11T11:09:23.461Z,6.17
2023-04-11T11:12:07.613Z,6.63
2023-04-11T11:14:35.796Z,5.97
2023-04-11T11:17:04.243Z,6.17
2023-04-11T11:19:36.321Z,5.03
2023-04-11T11:22:06.471Z,4.97
2023-04-11T11:24:34.368Z,5.77
2023-04-11T11:27:02.562Z,6.70
2023-04-11T11:29:36.105Z,7.00
2023-04-11T11:32:04.754Z,5.37
2023-04-11T11:34:36.222Z,7.13
2023-04-11T11:37:05.777Z,6.27
2023-04-11T11:39:34.289Z,6.20
2023-04-11T11:42:03.485Z,5.73
2023-04-11T11:44:32.755Z,6.53
2023-04-11T11:47:04.534Z,4.77
2023-04-11T11:49:47.168Z,5.90
2023-04-11T11:52:33.058Z,6.30
2023-04-11T11:55:03.781Z,6.63
2023-04-11T11:57:31.997Z,7.63
2023-04-11T12:00:05.478Z,6.47
2023-04-11T12:02:36.413Z,7.03
2023-04-11T12:05:07.376Z,8.27
2023-04-11T12:07:38.709Z,6.67
2023-04-11T12:10:09.609Z,6.73
2023-04-11T12:12:39.090Z,7.10
2023-04-11T12:15:12.470Z,6.17
2023-04-11T12:17:41.161Z,6.70
2023-04-11T12:20:12.102Z,5.70
2023-04-11T12:22:40.434Z,6.50
2023-04-11T12:25:09.972Z,7.67
2023-04-11T12:27:38.809Z,6.33
2023-04-11T12:30:08.149Z,5.87
2023-04-11T12:32:36.793Z,5.63
2023-04-11T12:35:08.000Z,5.40
2023-04-11T12:37:37.459Z,6.20
2023-04-11T12:40:11.093Z,5.43
2023-04-11T12:42:49.554Z,6.77
2023-04-11T12:45:24.732Z,6.10
2023-04-11T12:47:56.162Z,6.33
2023-04-11T12:50:24.904Z,5.50
2023-04-11T12:52:55.592Z,5.57
2023-04-11T12:55:24.559Z,6.23
2023-04-11T12:57:52.715Z,6.07
2023-04-11T13:00:21.328Z,5.80
2023-04-11T13:02:49.745Z,5.60
2023-04-11T13:05:18.273Z,5.10
2023-04-11T13:07:46.760Z,7.03
2023-04-11T13:10:16.923Z,6.53
2023-04-11T13:12:46.725Z,4.17
2023-04-11T13:15:15.665Z,5.03
2023-04-11T13:17:44.455Z,6.23
2023-04-11T13:20:13.945Z,5.47
2023-04-11T13:22:43.088Z,5.50
2023-04-11T13:25:12.612Z,6.27
2023-04-11T13:27:42.850Z,6.50
2023-04-11T13:30:12.071Z,5.80
2023-04-11T13:32:40.754Z,4.97
2023-04-11T13:35:10.372Z,5.67
2023-04-11T13:37:38.429Z,5.90
2023-04-11T13:40:08.822Z,6.53
2023-04-11T13:42:36.846Z,6.50
2023-04-11T13:45:07.437Z,5.20
2023-04-11T13:47:38.228Z,5.50
2023-04-11T13:50:09.603Z,7.00
2023-04-11T13:52:37.928Z,7.40
2023-04-11T13:55:07.225Z,6.90
2023-04-11T13:57:35.438Z,6.20
2023-04-11T14:00:11.328Z,7.13
2023-04-11T14:02:41.382Z,7.37
2023-04-11T14:05:10.797Z,7.33
2023-04-11T14:07:39.256Z,7.17
2023-04-11T14:10:08.185Z,5.50
2023-04-11T14:12:36.718Z,6.50
2023-04-11T14:15:06.101Z,5.83
2023-04-11T14:17:34.443Z,6.53
2023-04-11T14:20:06.920Z,6.73
2023-04-11T14:22:35.201Z,7.23
2023-04-11T14:25:03.064Z,7.73
2023-04-11T14:27:31.053Z,6.90
2023-04-11T14:29:59.223Z,7.37
2023-04-11T14:32:27.323Z,7.67
2023-04-11T14:34:56.144Z,8.27
2023-04-11T14:37:25.887Z,7.73
2023-04-11T14:39:53.852Z,6.40
2023-04-11T14:42:23.051Z,8.10
2023-04-11T14:44:51.896Z,6.80
2023-04-11T14:47:20.389Z,6.73
2023-04-11T14:49:48.313Z,6.57
2023-04-11T14:52:16.483Z,7.40
2023-04-11T14:54:45.798Z,7.53
2023-04-11T14:57:13.895Z,7.13
2023-04-11T14:59:43.291Z,7.70
2023-04-11T15:02:12.061Z,8.20
2023-04-11T15:04:40.207Z,7.87
2023-04-11T15:07:08.943Z,7.60
2023-04-11T15:09:36.822Z,6.77
2023-04-11T15:12:06.912Z,8.20
2023-04-11T15:14:35.177Z,7.83
2023-04-11T15:17:03.089Z,8.10
2023-04-11T15:19:31.533Z,8.97
2023-04-11T15:21:59.692Z,6.80
2023-04-11T15:24:27.873Z,6.87
2023-04-11T15:26:56.824Z,8.57
2023-04-11T15:29:26.844Z,9.50
2023-04-11T15:31:54.799Z,7.83
2023-04-11T15:34:23.449Z,8.30
2023-04-11T15:36:51.680Z,8.00
2023-04-11T15:39:19.572Z,9.03
2023-04-11T15:41:47.702Z,8.10
2023-04-11T15:44:16.059Z,7.73
2023-04-11T15:46:47.235Z,8.63
2023-04-11T15:49:17.076Z,8.50
2023-04-11T15:51:46.088Z,9.80
2023-04-11T15:54:13.978Z,9.77
2023-04-11T15:56:42.322Z,8.97
2023-04-11T15:59:12.942Z,10.13
2023-04-11T16:01:41.791Z,7.80
2023-04-11T16:04:12.226Z,9.63
2023-04-11T16:06:40.477Z,9.37
2023-04-11T16:09:08.757Z,9.30
2023-04-11T16:11:38.744Z,10.27
2023-04-11T16:14:06.832Z,9.57
2023-04-11T16:16:35.076Z,9.03
2023-04-11T16:19:03.318Z,8.73
2023-04-11T16:21:32.648Z,9.23
2023-04-11T16:24:00.660Z,10.53
2023-04-11T16:26:29.047Z,9.20
2023-04-11T16:28:57.227Z,8.50
2023-04-11T16:31:25.620Z,9.77
2023-04-11T16:33:55.411Z,8.13
2023-04-11T16:36:23.683Z,7.50
2023-04-11T16:38:52.976Z,7.27
2023-04-11T16:41:21.397Z,8.40
2023-04-11T16:43:49.612Z,7.27
2023-04-11T16:46:17.656Z,8.63
2023-04-11T16:48:46.079Z,8.90
2023-04-11T16:51:14.448Z,9.50
2023-04-11T16:53:42.483Z,9.33
2023-04-11T16:56:12.556Z,8.93
2023-04-11T16:58:40.978Z,8.67
2023-04-11T17:01:10.281Z,8.60
2023-04-11T17:03:39.693Z,9.37
2023-04-11T17:06:13.541Z,9.47
2023-04-11T17:08:43.112Z,8.40
2023-04-11T17:11:12.787Z,9.90
2023-04-11T17:13:42.377Z,9.23
2023-04-11T17:16:10.718Z,9.73
2023-04-11T17:18:39.225Z,8.53
2023-04-11T17:21:07.852Z,8.70
2023-04-11T17:23:43.173Z,7.27
2023-04-11T17:26:13.173Z,9.03
2023-04-11T17:28:42.583Z,9.67
2023-04-11T17:31:14.627Z,8.63
2023-04-11T17:33:44.087Z,8.10
2023-04-11T17:36:13.621Z,10.13
2023-04-11T17:38:43.526Z,9.60
2023-04-11T17:41:15.452Z,8.73
2023-04-11T17:43:43.902Z,9.47
2023-04-11T17:46:12.878Z,10.40
2023-04-11T17:48:40.985Z,9.13
2023-04-11T17:51:10.469Z,9.97
2023-04-11T17:53:38.476Z,9.10
2023-04-11T17:56:09.686Z,9.70
2023-04-11T17:58:42.615Z,8.80
2023-04-11T18:01:11.753Z,8.73
2023-04-11T18:03:41.490Z,9.53
2023-04-11T18:06:09.916Z,9.70
2023-04-11T18:08:50.534Z,8.37
2023-04-11T18:11:19.384Z,9.90
2023-04-11T18:13:50.527Z,8.90
2023-04-11T18:16:18.984Z,10.50
2023-04-11T18:18:48.402Z,9.23
2023-04-11T18:21:17.713Z,10.90
2023-04-11T18:23:45.972Z,9.33
2023-04-11T18:26:14.121Z,8.83
2023-04-11T18:28:42.281Z,9.07
2023-04-11T18:31:12.044Z,9.70
2023-04-11T18:33:43.414Z,9.93
2023-04-11T18:36:13.146Z,8.97
2023-04-11T18:38:41.498Z,8.73
2023-04-11T18:41:09.702Z,8.57
2023-04-11T18:43:38.682Z,9.00
2023-04-11T18:46:09.748Z,8.33
2023-04-11T18:48:39.375Z,7.77
2023-04-11T18:51:08.949Z,8.20
2023-04-11T18:53:37.012Z,9.27
2023-04-11T18:56:05.487Z,9.10
2023-04-11T18:58:35.172Z,9.10
2023-04-11T19:01:14.806Z,8.87
2023-04-11T19:03:46.371Z,8.83
2023-04-11T19:06:15.121Z,8.23
2023-04-11T19:08:43.081Z,7.87
2023-04-11T19:11:11.179Z,7.20
2023-04-11T19:13:39.657Z,8.37
2023-04-11T19:16:08.244Z,7.63
2023-04-11T19:18:36.495Z,7.90
2023-04-11T19:21:07.982Z,8.57
2023-04-11T19:23:37.849Z,7.83
2023-04-11T19:26:06.353Z,8.10
2023-04-11T19:28:34.610Z,7.97
2023-04-11T19:31:02.928Z,7.07
2023-04-11T19:33:31.578Z,8.27
2023-04-11T19:35:59.596Z,7.97
2023-04-11T19:38:29.260Z,7.10
2023-04-11T19:40:57.196Z,8.03
2023-04-11T19:43:25.169Z,8.10
2023-04-11T19:45:55.151Z,7.27
2023-04-11T19:48:23.307Z,7.93
2023-04-11T19:50:53.636Z,9.47
2023-04-11T19:53:22.088Z,8.07
2023-04-11T19:55:56.719Z,7.83
2023-04-11T19:58:24.797Z,8.00
2023-04-11T20:00:53.381Z,8.17
2023-04-11T20:03:21.962Z,7.83
2023-04-11T20:05:50.380Z,8.53
2023-04-11T20:08:19.243Z,7.17
2023-04-11T20:10:47.117Z,7.83
2023-04-11T20:13:17.328Z,6.93
2023-04-11T20:15:53.925Z,8.47
2023-04-11T20:18:21.913Z,7.23
2023-04-11T20:20:50.083Z,6.93
2023-04-11T20:23:18.324Z,7.77
2023-04-11T20:25:46.529Z,7.10
2023-04-11T20:28:15.036Z,7.20
2023-04-11T20:30:44.761Z,7.33
2023-04-11T20:33:13.174Z,6.70
2023-04-11T20:35:41.214Z,6.50
2023-04-11T20:38:09.582Z,7.00
2023-04-11T20:40:38.869Z,6.27
2023-04-11T20:43:06.829Z,5.83
2023-04-11T20:45:36.360Z,6.33
2023-04-11T20:48:09.138Z,6.83
2023-04-11T20:50:37.805Z,7.00
2023-04-11T20:53:05.991Z,6.27
2023-04-11T20:55:34.596Z,6.73
2023-04-11T20:58:04.009Z,7.37
2023-04-11T21:00:32.286Z,7.03
2023-04-11T21:03:00.516Z,7.60
2023-04-11T21:05:32.908Z,6.13
2023-04-11T21:08:02.355Z,7.37
2023-04-11T21:10:30.716Z,5.73
2023-04-11T21:12:58.855Z,5.37
2023-04-11T21:15:26.853Z,6.17
2023-04-11T21:17:54.872Z,5.60
2023-04-11T21:20:23.418Z,6.10
2023-04-11T21:22:54.672Z,7.00
2023-04-11T21:25:23.467Z,6.77
2023-04-11T21:27:51.577Z,6.83
2023-04-11T21:30:20.277Z,6.77
2023-04-11T21:32:49.212Z,6.30
2023-04-11T21:35:17.669Z,6.73
2023-04-11T21:37:48.489Z,7.70
2023-04-11T21:40:18.922Z,6.40
2023-04-11T21:42:47.004Z,6.93
2023-04-11T21:45:15.049Z,7.50
2023-04-11T21:47:43.154Z,6.80
2023-04-11T21:50:12.359Z,7.77
2023-04-11T21:52:40.975Z,6.90
2023-04-11T21:55:09.927Z,7.17
2023-04-11T21:57:39.888Z,7.23
2023-04-11T22:00:11.168Z,6.53
2023-04-11T22:02:39.853Z,7.30
2023-04-11T22:05:10.022Z,6.87
2023-04-11T22:07:47.615Z,7.57
2023-04-11T22:10:16.061Z,7.37
2023-04-11T22:12:47.539Z,6.77
2023-04-11T22:15:18.496Z,6.43
2023-04-11T22:17:51.266Z,7.40
2023-04-11T22:20:20.059Z,6.57
2023-04-11T22:22:48.360Z,7.43
2023-04-11T22:25:18.601Z,7.20
2023-04-11T22:27:47.982Z,7.87
2023-04-11T22:30:17.851Z,7.83
2023-04-11T22:32:47.254Z,7.83
2023-04-11T22:35:15.845Z,8.10
2023-04-11T22:37:44.982Z,7.57
2023-04-11T22:40:15.064Z,8.17
2023-04-11T22:42:43.315Z,7.27
2023-04-11T22:45:15.641Z,7.67
2023-04-11T22:47:46.230Z,7.47
2023-04-11T22:50:15.720Z,7.13
2023-04-11T22:52:43.930Z,6.97
2023-04-11T22:55:12.478Z,8.03
2023-04-11T22:57:41.032Z,7.50
2023-04-11T23:00:12.829Z,7.03
2023-04-11T23:02:42.533Z,7.53
2023-04-11T23:05:11.368Z,7.77
2023-04-11T23:07:39.440Z,8.47
2023-04-11T23:10:10.606Z,6.77
2023-04-11T23:12:40.494Z,7.03
2023-04-11T23:15:09.656Z,8.40
2023-04-11T23:17:40.202Z,7.30
2023-04-11T23:20:13.966Z,7.60
2023-04-11T23:22:43.938Z,7.93
2023-04-11T23:25:12.788Z,7.50
2023-04-11T23:27:41.257Z,7.77
2023-04-11T23:30:11.938Z,8.57
2023-04-11T23:32:41.673Z,7.77
2023-04-11T23:35:13.080Z,8.40
2023-04-11T23:37:41.464Z,8.13
2023-04-11T23:40:14.065Z,7.53
2023-04-11T23:42:42.869Z,8.53
2023-04-11T23:45:12.819Z,8.87
2023-04-11T23:47:40.869Z,8.57
2023-04-11T23:50:12.269Z,8.43
2023-04-11T23:52:40.618Z,8.63
2023-04-11T23:55:10.752Z,7.03
2023-04-11T23:57:38.956Z,8.47
